createdAt,value
2024-03-07T00:00:24.602Z,12.95
2024-03-07T00:03:12.834Z,12.95
2024-03-07T00:05:41.425Z,12.87
2024-03-07T00:08:11.414Z,12.70
2024-03-07T00:10:40.038Z,12.74
2024-03-07T00:13:09.464Z,12.78
2024-03-07T00:15:38.198Z,12.74
2024-03-07T00:18:07.311Z,12.68
2024-03-07T00:20:36.771Z,12.77
2024-03-07T00:23:05.502Z,12.69
2024-03-07T00:25:34.547Z,12.55
2024-03-07T00:28:05.797Z,12.71
2024-03-07T00:30:35.511Z,12.60
2024-03-07T00:33:04.178Z,12.69
2024-03-07T00:35:33.022Z,12.63
2024-03-07T00:38:01.418Z,12.49
2024-03-07T00:40:30.546Z,12.62
2024-03-07T00:43:00.726Z,12.65
2024-03-07T00:45:29.749Z,12.63
2024-03-07T00:47:58.260Z,12.47
2024-03-07T00:50:26.977Z,12.56
2024-03-07T00:52:55.423Z,12.55
2024-03-07T00:55:24.596Z,12.47
2024-03-07T00:57:52.871Z,12.47
2024-03-07T01:00:23.186Z,12.57
2024-03-07T01:02:54.661Z,12.43
2024-03-07T01:05:23.509Z,12.41
2024-03-07T01:07:51.915Z,12.38
2024-03-07T01:10:20.697Z,12.50
2024-03-07T01:12:51.352Z,12.35
2024-03-07T01:15:20.184Z,12.42
2024-03-07T01:17:48.738Z,12.37
2024-03-07T01:20:17.621Z,12.39
2024-03-07T01:22:46.279Z,12.35
2024-03-07T01:25:14.986Z,12.28
2024-03-07T01:27:43.398Z,12.11
2024-03-07T01:30:12.811Z,12.14
2024-03-07T01:32:41.197Z,12.12
2024-03-07T01:35:11.579Z,12.08
2024-03-07T01:37:39.812Z,12.24
2024-03-07T01:40:09.639Z,12.16
2024-03-07T01:42:37.847Z,12.31
2024-03-07T01:45:06.824Z,12.21
2024-03-07T01:47:35.187Z,12.23
2024-03-07T01:50:05.149Z,12.14
2024-03-07T01:52:33.732Z,12.28
2024-03-07T01:55:04.340Z,12.13
2024-03-07T01:57:33.197Z,12.17
2024-03-07T02:00:07.702Z,12.23
2024-03-07T02:02:36.944Z,12.09
2024-03-07T02:05:05.992Z,11.94
2024-03-07T02:07:34.624Z,11.88
2024-03-07T02:10:07.282Z,11.95
2024-03-07T02:12:35.481Z,11.93
2024-03-07T02:15:04.314Z,12.01
2024-03-07T02:17:33.587Z,11.93
2024-03-07T02:20:02.227Z,11.91
2024-03-07T02:22:30.378Z,11.96
2024-03-07T02:24:59.114Z,12.01
2024-03-07T02:27:27.246Z,12.02
2024-03-07T02:29:55.976Z,12.08
2024-03-07T02:32:24.772Z,11.69
2024-03-07T02:34:54.077Z,11.61
2024-03-07T02:37:22.249Z,11.56
2024-03-07T02:39:51.109Z,11.66
2024-03-07T02:42:19.429Z,11.86
2024-03-07T02:44:48.501Z,11.82
2024-03-07T02:47:17.066Z,11.43
2024-03-07T02:49:45.947Z,11.59
2024-03-07T02:52:14.073Z,11.57
2024-03-07T02:54:42.713Z,11.08
2024-03-07T02:57:12.934Z,10.91
2024-03-07T02:59:41.650Z,11.05
2024-03-07T03:02:09.800Z,10.98
2024-03-07T03:04:38.555Z,10.88
2024-03-07T03:07:08.485Z,11.14
2024-03-07T03:09:41.436Z,10.91
2024-03-07T03:12:10.240Z,11.07
2024-03-07T03:14:39.085Z,11.01
2024-03-07T03:17:10.352Z,11.00
2024-03-07T03:19:39.054Z,11.06
2024-03-07T03:22:10.409Z,11.02
2024-03-07T03:24:42.687Z,11.08
2024-03-07T03:27:12.284Z,11.04
2024-03-07T03:29:42.350Z,11.15
2024-03-07T03:32:10.534Z,11.33
2024-03-07T03:34:39.194Z,11.19
2024-03-07T03:37:07.500Z,11.06
2024-03-07T03:39:36.521Z,11.19
2024-03-07T03:42:04.933Z,11.06
2024-03-07T03:44:33.399Z,11.11
2024-03-07T03:47:05.351Z,11.46
2024-03-07T03:49:33.927Z,11.27
2024-03-07T03:52:02.351Z,11.43
2024-03-07T03:54:31.205Z,11.49
2024-03-07T03:57:00.404Z,11.64
2024-03-07T03:59:29.217Z,11.49
2024-03-07T04:01:57.352Z,11.62
2024-03-07T04:04:27.444Z,11.67
2024-03-07T04:06:55.707Z,11.55
2024-03-07T04:09:24.873Z,11.73
2024-03-07T04:11:53.219Z,11.75
2024-03-07T04:14:21.798Z,11.83
2024-03-07T04:16:50.111Z,11.66
2024-03-07T06:36:00.267Z,11.81
2024-03-07T06:38:28.893Z,11.77
2024-03-07T06:40:57.001Z,11.90
2024-03-07T06:43:25.950Z,11.68
2024-03-07T06:45:53.929Z,11.75
2024-03-07T06:48:22.746Z,11.80
2024-03-07T06:50:52.272Z,11.85
2024-03-07T06:53:21.745Z,11.99
2024-03-07T06:55:50.698Z,11.94
2024-03-07T06:58:19.140Z,12.01
2024-03-07T07:00:47.298Z,12.07
2024-03-07T07:03:15.799Z,11.87
2024-03-07T07:05:44.025Z,11.97
2024-03-07T07:08:15.100Z,12.09
2024-03-07T07:10:44.290Z,12.46
2024-03-07T07:13:14.540Z,12.50
2024-03-07T07:15:42.673Z,12.42
2024-03-07T07:18:12.114Z,12.48
2024-03-07T07:20:40.488Z,12.28
2024-03-07T07:23:09.137Z,12.39
2024-03-07T07:25:37.352Z,12.44
2024-03-07T07:28:06.430Z,12.61
2024-03-07T07:30:34.937Z,12.62
2024-03-07T07:33:03.644Z,12.65
2024-03-07T07:35:32.623Z,12.67
2024-03-07T07:38:01.129Z,12.67
2024-03-07T07:40:29.642Z,12.77
2024-03-07T07:42:58.204Z,12.52
2024-03-07T07:45:26.516Z,12.66
2024-03-07T07:47:55.880Z,12.96
2024-03-07T07:50:25.682Z,13.08
2024-03-07T07:52:56.530Z,13.47
2024-03-07T07:55:26.909Z,13.60
2024-03-07T07:57:58.165Z,13.45
2024-03-07T08:00:30.790Z,13.51
2024-03-07T08:03:05.266Z,13.76
2024-03-07T08:05:34.505Z,13.71
2024-03-07T08:08:08.396Z,13.81
2024-03-07T08:10:38.022Z,14.07
2024-03-07T08:13:12.040Z,14.61
2024-03-07T08:15:40.824Z,14.75
2024-03-07T08:18:12.777Z,14.88
2024-03-07T08:20:42.782Z,15.09
2024-03-07T08:23:11.980Z,15.19
2024-03-07T08:25:42.206Z,14.91
2024-03-07T08:28:10.802Z,14.98
2024-03-07T08:30:39.330Z,14.59
2024-03-07T08:33:09.342Z,14.50
2024-03-07T08:35:37.983Z,14.71
2024-03-07T08:38:06.585Z,14.61
2024-03-07T08:40:35.735Z,14.65
2024-03-07T08:43:05.157Z,14.73
2024-03-07T08:45:35.811Z,14.59
2024-03-07T08:48:06.272Z,15.09
2024-03-07T08:50:36.050Z,15.27
2024-03-07T08:53:08.834Z,15.02
2024-03-07T08:55:38.145Z,14.84
2024-03-07T08:58:10.258Z,14.88
2024-03-07T09:00:40.078Z,15.21
2024-03-07T09:03:12.391Z,15.30
2024-03-07T09:05:42.567Z,15.52
2024-03-07T09:08:11.310Z,15.62
2024-03-07T09:10:45.134Z,15.24
2024-03-07T09:13:14.004Z,15.51
2024-03-07T09:15:42.211Z,15.36
2024-03-07T09:18:10.936Z,15.50
2024-03-07T09:20:39.494Z,15.56
2024-03-07T09:23:08.557Z,15.47
2024-03-07T09:25:37.778Z,15.70
2024-03-07T09:28:07.969Z,15.76
2024-03-07T09:30:40.300Z,15.51
2024-03-07T09:33:12.594Z,15.90
2024-03-07T09:35:41.528Z,15.66
2024-03-07T09:38:10.160Z,15.86
2024-03-07T09:40:39.048Z,16.06
2024-03-07T09:43:11.383Z,16.31
2024-03-07T09:45:41.548Z,16.19
2024-03-07T09:48:10.798Z,16.19
2024-03-07T09:50:39.964Z,15.78
2024-03-07T09:53:10.220Z,16.02
2024-03-07T09:55:39.019Z,15.89
2024-03-07T09:58:10.712Z,15.99
2024-03-07T10:00:39.778Z,15.74
2024-03-07T10:03:10.887Z,16.16
2024-03-07T10:05:40.470Z,16.07
2024-03-07T10:08:09.413Z,16.03
2024-03-07T10:10:37.908Z,15.84
2024-03-07T10:13:07.187Z,16.21
2024-03-07T10:15:36.276Z,16.20
2024-03-07T10:18:09.830Z,16.20
2024-03-07T10:20:38.662Z,16.37
2024-03-07T10:23:09.347Z,16.62
2024-03-07T10:25:38.920Z,16.98
2024-03-07T10:28:10.216Z,17.06
2024-03-07T10:30:51.813Z,17.10
2024-03-07T10:33:21.586Z,17.08
2024-03-07T10:35:51.067Z,16.37
2024-03-07T10:38:20.714Z,16.99
2024-03-07T10:40:51.076Z,17.20
2024-03-07T10:43:21.951Z,17.33
2024-03-07T10:45:53.935Z,17.21
2024-03-07T10:48:29.720Z,17.24
2024-03-07T10:51:26.629Z,17.03
2024-03-07T10:54:09.474Z,16.98
2024-03-07T10:56:57.910Z,16.96
2024-03-07T10:59:34.870Z,17.09
2024-03-07T11:02:28.598Z,17.16
2024-03-07T11:04:57.778Z,16.47
2024-03-07T11:07:26.537Z,16.95
2024-03-07T11:09:56.992Z,17.15
2024-03-07T11:12:26.434Z,16.93
2024-03-07T11:14:58.022Z,17.00
2024-03-07T11:17:26.860Z,17.28
2024-03-07T11:19:55.325Z,16.64
2024-03-07T11:22:32.769Z,16.81
2024-03-07T11:25:08.808Z,16.96
2024-03-07T11:27:41.233Z,16.29
2024-03-07T11:30:11.813Z,16.56
2024-03-07T11:32:40.569Z,16.47
2024-03-07T11:35:15.857Z,16.88
2024-03-07T11:37:48.268Z,16.89
2024-03-07T11:40:26.217Z,16.79
2024-03-07T11:43:01.394Z,16.89
2024-03-07T11:45:31.584Z,17.18
2024-03-07T11:48:11.192Z,17.05
2024-03-07T11:50:41.814Z,17.51
2024-03-07T11:53:11.039Z,17.32
2024-03-07T11:55:47.516Z,17.12
2024-03-07T11:58:18.420Z,17.09
2024-03-07T12:00:47.762Z,17.06
2024-03-07T12:03:25.210Z,17.67
2024-03-07T12:05:54.338Z,18.05
2024-03-07T12:08:25.553Z,18.78
2024-03-07T12:10:58.972Z,19.25
2024-03-07T12:13:28.968Z,19.74
2024-03-07T12:16:00.243Z,18.82
2024-03-07T12:18:31.118Z,19.61
2024-03-07T12:21:00.563Z,19.85
2024-03-07T12:23:29.503Z,19.47
2024-03-07T12:26:05.022Z,19.12
2024-03-07T12:28:40.196Z,19.45
2024-03-07T12:31:17.586Z,19.50
2024-03-07T12:33:53.459Z,19.92
2024-03-07T12:36:24.469Z,20.66
2024-03-07T12:38:57.174Z,20.59
2024-03-07T12:41:25.578Z,20.95
2024-03-07T12:43:55.228Z,20.54
2024-03-07T12:46:23.468Z,20.82
2024-03-07T12:48:52.265Z,21.25
2024-03-07T12:51:21.408Z,21.01
2024-03-07T12:53:54.067Z,20.34
2024-03-07T12:56:22.222Z,20.28
2024-03-07T12:58:51.917Z,21.04
2024-03-07T13:01:21.382Z,20.07
2024-03-07T13:03:51.225Z,20.17
2024-03-07T13:06:27.553Z,20.29
2024-03-07T13:08:59.687Z,20.44
2024-03-07T13:11:31.893Z,20.68
2024-03-07T13:14:01.252Z,21.15
2024-03-07T13:16:32.570Z,21.60
2024-03-07T13:19:02.596Z,21.39
2024-03-07T13:21:32.112Z,21.86
2024-03-07T13:24:02.226Z,21.22
2024-03-07T13:26:33.192Z,20.84
2024-03-07T13:29:03.057Z,21.06
2024-03-07T13:31:31.224Z,20.92
2024-03-07T13:34:03.505Z,20.31
2024-03-07T13:36:31.844Z,19.70
2024-03-07T13:39:00.697Z,19.67
2024-03-07T13:41:30.113Z,20.07
2024-03-07T13:44:01.434Z,20.27
2024-03-07T13:46:30.263Z,18.63
2024-03-07T13:49:08.674Z,18.45
2024-03-07T13:51:37.197Z,18.19
2024-03-07T13:54:29.463Z,18.49
2024-03-07T13:57:21.529Z,19.07
2024-03-07T14:00:18.013Z,19.03
2024-03-07T14:03:03.669Z,18.24
2024-03-07T14:05:46.616Z,18.62
2024-03-07T14:08:43.246Z,18.72
2024-03-07T14:11:36.792Z,18.45
2024-03-07T14:14:44.947Z,18.54
2024-03-07T14:17:25.668Z,18.13
2024-03-07T14:20:20.700Z,18.06
2024-03-07T14:23:18.219Z,18.25
2024-03-07T14:26:24.318Z,18.24
2024-03-07T14:29:37.315Z,18.62
2024-03-07T14:32:06.177Z,18.12
2024-03-07T14:34:58.400Z,18.28
2024-03-07T14:37:33.110Z,17.73
2024-03-07T14:40:15.320Z,18.41
2024-03-07T14:42:46.604Z,18.48
2024-03-07T14:45:24.942Z,17.92
2024-03-07T14:47:56.475Z,18.37
2024-03-07T14:50:28.999Z,18.21
2024-03-07T14:52:57.912Z,17.93
2024-03-07T14:55:26.317Z,18.13
2024-03-07T14:57:54.408Z,18.00
2024-03-07T15:00:34.180Z,17.97
2024-03-07T15:03:08.004Z,17.88
2024-03-07T15:05:37.876Z,17.71
2024-03-07T15:08:06.253Z,17.73
2024-03-07T15:10:39.450Z,17.39
2024-03-07T15:13:09.640Z,17.46
2024-03-07T15:15:38.101Z,17.58
2024-03-07T15:18:06.466Z,17.46
2024-03-07T15:20:34.999Z,17.51
2024-03-07T15:23:10.007Z,17.26
2024-03-07T15:25:38.363Z,17.65
2024-03-07T15:28:06.560Z,17.55
2024-03-07T15:30:38.066Z,17.46
2024-03-07T15:33:06.887Z,17.06
2024-03-07T15:35:36.668Z,16.95
2024-03-07T15:38:05.844Z,17.16
2024-03-07T15:40:35.551Z,17.12
2024-03-07T15:43:04.884Z,17.13
2024-03-07T15:45:33.579Z,17.05
2024-03-07T15:48:12.241Z,16.88
2024-03-07T15:50:45.750Z,16.63
2024-03-07T15:53:15.000Z,16.57
2024-03-07T15:55:44.490Z,16.18
2024-03-07T15:58:12.800Z,16.07
2024-03-07T16:00:42.584Z,16.08
2024-03-07T16:03:13.828Z,16.09
2024-03-07T16:05:48.660Z,16.54
2024-03-07T16:08:20.507Z,16.44
2024-03-07T16:10:50.144Z,16.73
2024-03-07T16:13:18.594Z,16.80
2024-03-07T16:15:48.726Z,16.81
2024-03-07T16:18:17.654Z,16.48
2024-03-07T16:20:48.945Z,16.47
2024-03-07T16:23:18.269Z,16.40
2024-03-07T16:25:47.142Z,16.68
2024-03-07T16:28:17.491Z,16.54
2024-03-07T16:30:47.201Z,16.66
2024-03-07T16:33:19.261Z,16.52
2024-03-07T16:35:49.242Z,16.67
2024-03-07T16:38:17.683Z,16.40
2024-03-07T16:40:46.668Z,16.48
2024-03-07T16:43:14.893Z,16.57
2024-03-07T16:45:44.270Z,16.51
2024-03-07T16:48:13.305Z,16.51
2024-03-07T16:50:43.254Z,16.26
2024-03-07T16:53:12.945Z,16.29
2024-03-07T16:55:41.464Z,15.93
2024-03-07T16:58:17.766Z,16.11
2024-03-07T17:00:46.293Z,16.18
2024-03-07T17:03:16.873Z,15.91
2024-03-07T17:05:46.323Z,15.98
2024-03-07T17:08:17.715Z,16.04
2024-03-07T17:10:47.492Z,15.98
2024-03-07T17:13:17.189Z,15.80
2024-03-07T17:15:47.702Z,15.68
2024-03-07T17:18:17.024Z,15.87
2024-03-07T17:20:47.261Z,15.86
2024-03-07T17:23:17.108Z,15.82
2024-03-07T17:25:48.362Z,15.87
2024-03-07T17:28:18.234Z,15.91
2024-03-07T17:30:47.050Z,15.90
2024-03-07T17:33:17.252Z,15.80
2024-03-07T17:35:46.344Z,15.70
2024-03-07T17:38:15.932Z,15.81
2024-03-07T17:40:44.748Z,15.66
2024-03-07T17:43:12.965Z,15.58
2024-03-07T17:45:42.485Z,15.47
2024-03-07T17:48:12.209Z,15.45
2024-03-07T17:50:43.760Z,15.57
2024-03-07T17:53:15.301Z,15.58
2024-03-07T17:55:46.727Z,15.58
2024-03-07T17:58:15.890Z,15.55
2024-03-07T18:00:46.774Z,15.52
2024-03-07T18:03:18.187Z,15.63
2024-03-07T18:05:53.756Z,15.58
2024-03-07T18:08:34.841Z,15.55
2024-03-07T18:11:15.348Z,15.75
2024-03-07T18:13:45.391Z,15.69
2024-03-07T18:16:17.400Z,15.77
2024-03-07T18:18:51.261Z,15.68
2024-03-07T18:21:20.010Z,15.58
2024-03-07T18:23:48.249Z,15.65
2024-03-07T18:26:16.809Z,15.61
2024-03-07T18:28:45.747Z,15.65
2024-03-07T18:31:19.445Z,15.52
2024-03-07T18:33:47.914Z,15.42
2024-03-07T18:36:16.631Z,15.25
2024-03-07T18:38:46.856Z,15.57
2024-03-07T18:41:17.462Z,15.39
2024-03-07T18:43:45.619Z,15.35
2024-03-07T18:46:14.154Z,15.40
2024-03-07T18:48:43.922Z,15.22
2024-03-07T18:51:12.940Z,15.23
2024-03-07T18:53:41.315Z,15.27
2024-03-07T18:56:12.523Z,15.17
2024-03-07T18:58:40.989Z,15.30
2024-03-07T19:01:09.908Z,15.45
2024-03-07T19:03:38.280Z,15.34
2024-03-07T19:06:10.469Z,15.27
2024-03-07T19:08:38.909Z,15.30
2024-03-07T19:11:08.221Z,15.50
2024-03-07T19:13:37.616Z,15.33
2024-03-07T19:16:08.174Z,15.31
2024-03-07T19:18:36.369Z,15.17
2024-03-07T19:21:11.852Z,15.17
2024-03-07T19:23:47.021Z,14.99
2024-03-07T19:26:21.132Z,14.95
2024-03-07T19:28:49.897Z,14.96
2024-03-07T19:31:18.350Z,15.04
2024-03-07T19:33:46.843Z,14.95
2024-03-07T19:36:15.827Z,14.99
2024-03-07T19:38:47.625Z,15.08
2024-03-07T19:41:16.706Z,15.26
2024-03-07T19:43:45.162Z,15.05
2024-03-07T19:46:13.740Z,15.10
2024-03-07T19:48:42.285Z,14.98
2024-03-07T19:51:11.391Z,14.99
2024-03-07T19:53:40.811Z,14.97
2024-03-07T19:56:09.685Z,15.11
2024-03-07T19:58:39.459Z,15.06
2024-03-07T20:01:13.231Z,14.95
2024-03-07T20:03:42.098Z,14.96
2024-03-07T20:06:10.827Z,14.89
2024-03-07T20:08:39.596Z,14.74
2024-03-07T20:11:08.518Z,14.80
2024-03-07T20:13:41.840Z,14.77
2024-03-07T20:16:10.378Z,15.01
2024-03-07T20:18:41.344Z,14.91
2024-03-07T20:21:11.162Z,14.94
2024-03-07T20:23:41.809Z,14.77
2024-03-07T20:26:10.438Z,14.63
2024-03-07T20:28:38.787Z,14.73
2024-03-07T20:31:09.692Z,14.72
2024-03-07T20:33:38.745Z,14.77
2024-03-07T20:36:10.393Z,14.63
2024-03-07T20:38:39.656Z,14.38
2024-03-07T20:41:08.369Z,14.66
2024-03-07T20:43:37.529Z,14.50
2024-03-07T20:46:07.483Z,14.67
2024-03-07T20:48:37.253Z,14.70
2024-03-07T20:51:07.466Z,14.60
2024-03-07T20:53:35.944Z,14.73
2024-03-07T20:56:07.772Z,14.66
2024-03-07T20:58:36.871Z,14.64
2024-03-07T21:01:09.465Z,14.49
2024-03-07T21:03:42.901Z,14.58
2024-03-07T21:06:12.264Z,14.67
2024-03-07T21:08:41.381Z,14.69
2024-03-07T21:11:10.447Z,14.63
2024-03-07T21:13:40.489Z,14.67
2024-03-07T21:16:12.876Z,14.57
2024-03-07T21:18:41.664Z,14.38
2024-03-07T21:21:10.676Z,14.34
2024-03-07T21:23:41.857Z,14.29
2024-03-07T21:26:13.358Z,14.32
2024-03-07T21:28:42.324Z,14.26
2024-03-07T21:31:10.740Z,14.20
2024-03-07T21:33:40.926Z,13.92
2024-03-07T21:36:11.082Z,13.84
2024-03-07T21:38:40.172Z,13.73
2024-03-07T21:41:10.682Z,13.72
2024-03-07T21:43:38.847Z,13.66
2024-03-07T21:46:07.665Z,13.76
2024-03-07T21:48:36.024Z,13.72
2024-03-07T21:51:04.882Z,13.85
2024-03-07T21:53:33.032Z,13.75
2024-03-07T21:56:03.506Z,13.73
2024-03-07T21:58:31.628Z,13.84
2024-03-07T22:01:00.040Z,13.85
2024-03-07T22:03:28.115Z,13.92
2024-03-07T22:05:57.739Z,13.91
2024-03-07T22:08:28.262Z,13.95
2024-03-07T22:10:56.651Z,13.85
2024-03-07T22:13:24.914Z,13.83
2024-03-07T22:15:53.207Z,13.82
2024-03-07T22:18:22.562Z,13.88
2024-03-07T22:20:51.302Z,13.85
2024-03-07T22:23:19.452Z,13.76
2024-03-07T22:25:48.331Z,13.75
2024-03-07T22:28:16.498Z,14.06
2024-03-07T22:30:45.578Z,13.79
2024-03-07T22:33:13.714Z,13.81
2024-03-07T22:35:42.226Z,13.76
2024-03-07T22:38:10.575Z,13.74
2024-03-07T22:40:38.967Z,13.87
2024-03-07T22:43:07.192Z,13.59
2024-03-07T22:45:35.679Z,13.85
2024-03-07T22:48:04.061Z,13.89
2024-03-07T22:50:33.485Z,13.77
2024-03-07T22:53:03.097Z,13.69
2024-03-07T22:55:33.657Z,13.43
2024-03-07T22:58:01.773Z,13.39
2024-03-07T23:00:33.638Z,13.54
2024-03-07T23:03:06.168Z,13.62
2024-03-07T23:05:35.635Z,13.47
2024-03-07T23:08:03.905Z,13.59
2024-03-07T23:10:32.665Z,13.59
2024-03-07T23:13:01.990Z,13.72
2024-03-07T23:15:32.340Z,13.57
2024-03-07T23:18:02.396Z,13.70
2024-03-07T23:20:30.974Z,13.72
2024-03-07T23:23:00.349Z,13.59
2024-03-07T23:25:30.009Z,13.54
2024-03-07T23:28:01.166Z,13.42
2024-03-07T23:30:31.496Z,13.64
2024-03-07T23:33:00.176Z,13.52
2024-03-07T23:35:29.080Z,13.65
2024-03-07T23:37:58.519Z,13.52
2024-03-07T23:40:30.304Z,13.58
2024-03-07T23:42:59.164Z,13.39
2024-03-07T23:45:28.746Z,13.50
2024-03-07T23:47:59.243Z,13.50
2024-03-07T23:50:28.382Z,13.49
2024-03-07T23:52:56.659Z,13.52
2024-03-07T23:55:25.258Z,13.35
2024-03-07T23:57:53.477Z,13.38
